AirNav   Air Wisconsin Up To $57,000 Bonus
 
 1195 users online  

40FD Little's Heliport
Lakeland, Florida, USA

GOING TO LAKELAND?


FAA INFORMATION EFFECTIVE 17 JUNE 2021

Location

FAA Identifier: 40FD
Lat/Long: 28-00-39.8900N 081-52-45.6700W
28-00.664833N 081-52.761167W
28.0110806,-81.8793528
(estimated)
Elevation: 115 ft. / 35 m (estimated)
Variation: 02W (1985)
From city: 4 miles SE of LAKELAND, FL
Time zone: UTC -4 (UTC -5 during Standard Time)
Zip code: 33801

Heliport Operations

Heliport use: Private use. Permission required prior to landing
Activation date: 11/1975
Control tower: no
ARTCC: MIAMI CENTER
FSS: SAINT PETERSBURG FLIGHT SERVICE STATION
Attendance: MON-FRI DAYLIGHT HOURS
Wind indicator: yes
Segmented circle: no

Heliport Communications

WX AWOS-3 at BOW (7 nm SE): 123.775 (863-533-9004)
WX ASOS at GIF (7 nm NE): 133.675 (863-956-2097)
WX AWOS-3PT at LAL (8 nm W): 118.025 (863-834-2030)
WX AWOS-3 at PCM (15 nm W): 120.025 (813-764-8259)
WX AWOS-3 at X07 (15 nm SE): 124.225 (863-678-1334)
WX AWOS-3PT at ZPH (20 nm NW): 118.975 (813-780-0031)

Nearby radio navigation aids

VOR radial/distance  VOR name  Freq  Var
LALr077/7.3LAKELAND VORTAC116.0001E

Heliport Services

Runway Information

Helipad H1

Dimensions: 60 x 60 ft. / 18 x 18 m
Surface: asphalt
Latitude: 28-00.664833N
Longitude: 081-52.761167W
Elevation: 115.0 ft.
Traffic pattern: leftleft

Heliport Ownership and Management from official FAA records

Ownership: Privately-owned
Owner: BERNIE LITTLE
PO BOX 1128
EATON PARK, FL 33840
Phone 863-665-5100
Manager: JOSEPH LITTLE
PO BOX 1128
EATON PARK, FL 33840
Phone 863-665-5100

Heliport Operational Statistics

Aircraft based on the field: 1
Helicopters: 1
    

Additional Remarks

FOR CD CTC TAMPA APCH AT 813-878-2528

Instrument Procedures

There are no published instrument procedures at 40FD.

Some nearby airports with instrument procedures:

KBOW - Bartow Executive Airport (7 nm SE)
KGIF - Winter Haven Regional Airport (7 nm NE)
KLAL - Lakeland Linder International Airport (8 nm W)
KPCM - Plant City Airport (15 nm W)
X07 - Lake Wales Municipal Airport (15 nm SE)
KZPH - Zephyrhills Municipal Airport (20 nm NW)
 
Loc | Ops | Rwys | IFR | FBO | Links
Com | Nav | Svcs | Stats | Notes


 
Area around 40FD (Little's Heliport)
 
Road maps at: MapQuest Bing Google
 
Aerial photo
No photo
 
Sectional chart

 
Airport distance calculator
Flying to Little's Heliport? Find the distance to fly.

From to 40FD

Sunrise and sunset
Times for 25-Jun-2021
 Local
(UTC-4)
 Zulu
(UTC)
Morning civil twilight06:0710:07
Sunrise06:3410:34
Sunset20:2700:27
Evening civil twilight20:5300:53

Current date and time
Zulu (UTC)  25-Jun-2021 12:40:57
Local (UTC-4)  25-Jun-2021 08:40:57
 
METAR
KBOW 
8nm SE 
251220Z 08006KT 7SM SCT006 24/23 A3010
KGIF 
8nm NE 
251215Z AUTO 06007KT 10SM BKN004 24/23 A3011 RMK AO2 T02390228
KLAL 
8nm W 
251150Z 05004KT 7SM BKN005 23/23 A3010
KPCM 
15nm W 
251215Z AUTO 05003KT 7SM BKN003 23/23 A3012 RMK AO2
KX07 
15nm SE 
251035Z AUTO 07004KT 8SM 23/23 A3009 RMK A01
KZPH 
20nm NW 
251215Z AUTO 02004KT 10SM SCT003 22/22 A3011 RMK A02 T02230218
TAF
KLAL 
8nm W 
251124Z 2512/2612 04004KT P6SM SCT005 TEMPO 2512/2514 BKN005 FM251400 10007KT P6SM SCT025 FM251700 11007KT P6SM TSRA SCT025CB BKN040 TEMPO 2518/2522 VRB20G35KT 4SM TSRA BKN025CB FM260100 06004KT P6SM FEW010
NOTAMs
Click for the latest NOTAMs
NOTAMs are issued by the DoD/FAA and will open in a separate window not controlled by AirNav.

 

 
 

Would you like to see your business listed on this page?

 If your business provides an interesting product or service to pilots, flight crews, aircraft, or users of the Little's Heliport, you should consider listing it here.  To start the listing process, click on the button below
 
Add a business
 

Other Pages about Little's Heliport

Update a link
 
Copyright © AirNav, LLC. All rights reserved. Privacy Policy  Contact